<?xml version="1.0" encoding="UTF-8" standalone="no" ?>
<gpx xmlns="http://www.topografix.com/GPX/1/1" xmlns:xsi="http://www.w3.org/2001/XMLSchema-instance" xsi:schemaLocation="http://www.topografix.com/GPX/1/1 http://www.topografix.com/GPX/1/1/gpx.xsd" version="1.1" creator="VisuGPX - https://www.visugpx.com">
  <metadata>
    <name>2023-11-02-Douelle-Mercues</name>
    <desc><![CDATA[Randonnée de 10,5km sans difficulté. une partie du circuit se fera par un aller retour sur la voie verte jusqu'à Mercues. A voir les châteaux du Carriol et celui en ruine de Cessac]]></desc>
  </metadata>
  <trk>
    <name><![CDATA[Rando Douelle du 02-11-2023-17882458]]></name>
    <trkseg>
      <trkpt lat="44.4698" lon="1.36216">
        <ele>114</ele>
        <time>2023-10-30T08:56:36Z</time>
      </trkpt>
      <trkpt lat="44.47001" lon="1.36191">
        <ele>111</ele>
        <time>2023-10-30T08:57:13Z</time>
      </trkpt>
      <trkpt lat="44.47042" lon="1.36138">
        <ele>112</ele>
        <time>2023-10-30T08:58:27Z</time>
      </trkpt>
      <trkpt lat="44.47076" lon="1.361">
        <ele>112</ele>
        <time>2023-10-30T08:59:25Z</time>
      </trkpt>
      <trkpt lat="44.47105" lon="1.36075">
        <ele>112</ele>
        <time>2023-10-30T09:00:11Z</time>
      </trkpt>
      <trkpt lat="44.47106" lon="1.3608">
        <ele>112</ele>
        <time>2023-10-30T09:00:16Z</time>
      </trkpt>
      <trkpt lat="44.47105" lon="1.36075">
        <ele>112</ele>
        <time>2023-10-30T09:00:21Z</time>
      </trkpt>
      <trkpt lat="44.4711" lon="1.36072">
        <ele>112</ele>
        <time>2023-10-30T09:00:28Z</time>
      </trkpt>
      <trkpt lat="44.47124" lon="1.36111">
        <ele>110</ele>
        <time>2023-10-30T09:01:09Z</time>
      </trkpt>
      <trkpt lat="44.47129" lon="1.36124">
        <ele>109</ele>
        <time>2023-10-30T09:01:23Z</time>
      </trkpt>
      <trkpt lat="44.47142" lon="1.3616">
        <ele>107</ele>
        <time>2023-10-30T09:02:02Z</time>
      </trkpt>
      <trkpt lat="44.47168" lon="1.36233">
        <ele>107</ele>
        <time>2023-10-30T09:03:20Z</time>
      </trkpt>
      <trkpt lat="44.4717" lon="1.36238">
        <ele>107</ele>
        <time>2023-10-30T09:03:25Z</time>
      </trkpt>
      <trkpt lat="44.47179" lon="1.36261">
        <ele>107</ele>
        <time>2023-10-30T09:03:50Z</time>
      </trkpt>
      <trkpt lat="44.47189" lon="1.36279">
        <ele>108</ele>
        <time>2023-10-30T09:04:12Z</time>
      </trkpt>
      <trkpt lat="44.47196" lon="1.36285">
        <ele>108</ele>
        <time>2023-10-30T09:04:23Z</time>
      </trkpt>
      <trkpt lat="44.4719" lon="1.36292">
        <ele>108</ele>
        <time>2023-10-30T09:04:33Z</time>
      </trkpt>
      <trkpt lat="44.47176" lon="1.36277">
        <ele>108</ele>
        <time>2023-10-30T09:04:57Z</time>
      </trkpt>
      <trkpt lat="44.47171" lon="1.36272">
        <ele>108</ele>
        <time>2023-10-30T09:05:05Z</time>
      </trkpt>
      <trkpt lat="44.47157" lon="1.3627">
        <ele>107</ele>
        <time>2023-10-30T09:05:24Z</time>
      </trkpt>
      <trkpt lat="44.47151" lon="1.36272">
        <ele>107</ele>
        <time>2023-10-30T09:05:32Z</time>
      </trkpt>
      <trkpt lat="44.47127" lon="1.36289">
        <ele>108</ele>
        <time>2023-10-30T09:06:08Z</time>
      </trkpt>
      <trkpt lat="44.47094" lon="1.36313">
        <ele>108</ele>
        <time>2023-10-30T09:06:57Z</time>
      </trkpt>
      <trkpt lat="44.47073" lon="1.36326">
        <ele>108</ele>
        <time>2023-10-30T09:07:28Z</time>
      </trkpt>
      <trkpt lat="44.47047" lon="1.36351">
        <ele>108</ele>
        <time>2023-10-30T09:08:10Z</time>
      </trkpt>
      <trkpt lat="44.4703" lon="1.36372">
        <ele>108</ele>
        <time>2023-10-30T09:08:40Z</time>
      </trkpt>
      <trkpt lat="44.4702" lon="1.3639">
        <ele>109</ele>
        <time>2023-10-30T09:09:02Z</time>
      </trkpt>
      <trkpt lat="44.47027" lon="1.36405">
        <ele>109</ele>
        <time>2023-10-30T09:09:19Z</time>
      </trkpt>
      <trkpt lat="44.47038" lon="1.36426">
        <ele>110</ele>
        <time>2023-10-30T09:09:44Z</time>
      </trkpt>
      <trkpt lat="44.47052" lon="1.36452">
        <ele>110</ele>
        <time>2023-10-30T09:10:15Z</time>
      </trkpt>
      <trkpt lat="44.47064" lon="1.36479">
        <ele>111</ele>
        <time>2023-10-30T09:10:45Z</time>
      </trkpt>
      <trkpt lat="44.47076" lon="1.36513">
        <ele>111</ele>
        <time>2023-10-30T09:11:21Z</time>
      </trkpt>
      <trkpt lat="44.47085" lon="1.36537">
        <ele>111</ele>
        <time>2023-10-30T09:11:47Z</time>
      </trkpt>
      <trkpt lat="44.47096" lon="1.36574">
        <ele>112</ele>
        <time>2023-10-30T09:12:25Z</time>
      </trkpt>
      <trkpt lat="44.47106" lon="1.366">
        <ele>113</ele>
        <time>2023-10-30T09:12:53Z</time>
      </trkpt>
      <trkpt lat="44.47111" lon="1.36609">
        <ele>113</ele>
        <time>2023-10-30T09:13:04Z</time>
      </trkpt>
      <trkpt lat="44.4709" lon="1.36637">
        <ele>113</ele>
        <time>2023-10-30T09:13:43Z</time>
      </trkpt>
      <trkpt lat="44.47072" lon="1.3666">
        <ele>114</ele>
        <time>2023-10-30T09:14:15Z</time>
      </trkpt>
      <trkpt lat="44.47057" lon="1.36683">
        <ele>114</ele>
        <time>2023-10-30T09:14:45Z</time>
      </trkpt>
      <trkpt lat="44.47038" lon="1.36708">
        <ele>114</ele>
        <time>2023-10-30T09:15:20Z</time>
      </trkpt>
      <trkpt lat="44.47023" lon="1.36735">
        <ele>114</ele>
        <time>2023-10-30T09:15:53Z</time>
      </trkpt>
      <trkpt lat="44.47006" lon="1.36758">
        <ele>114</ele>
        <time>2023-10-30T09:16:24Z</time>
      </trkpt>
      <trkpt lat="44.46993" lon="1.3678">
        <ele>115</ele>
        <time>2023-10-30T09:16:51Z</time>
      </trkpt>
      <trkpt lat="44.46983" lon="1.36814">
        <ele>115</ele>
        <time>2023-10-30T09:17:26Z</time>
      </trkpt>
      <trkpt lat="44.46973" lon="1.36858">
        <ele>115</ele>
        <time>2023-10-30T09:18:10Z</time>
      </trkpt>
      <trkpt lat="44.46961" lon="1.369">
        <ele>115</ele>
        <time>2023-10-30T09:18:53Z</time>
      </trkpt>
      <trkpt lat="44.46957" lon="1.36936">
        <ele>115</ele>
        <time>2023-10-30T09:19:28Z</time>
      </trkpt>
      <trkpt lat="44.46956" lon="1.36976">
        <ele>115</ele>
        <time>2023-10-30T09:20:06Z</time>
      </trkpt>
      <trkpt lat="44.46963" lon="1.37019">
        <ele>115</ele>
        <time>2023-10-30T09:20:48Z</time>
      </trkpt>
      <trkpt lat="44.46965" lon="1.37056">
        <ele>115</ele>
        <time>2023-10-30T09:21:23Z</time>
      </trkpt>
      <trkpt lat="44.46972" lon="1.37096">
        <ele>114</ele>
        <time>2023-10-30T09:22:03Z</time>
      </trkpt>
      <trkpt lat="44.46985" lon="1.37143">
        <ele>114</ele>
        <time>2023-10-30T09:22:51Z</time>
      </trkpt>
      <trkpt lat="44.46989" lon="1.37178">
        <ele>113</ele>
        <time>2023-10-30T09:23:24Z</time>
      </trkpt>
      <trkpt lat="44.47002" lon="1.37215">
        <ele>113</ele>
        <time>2023-10-30T09:24:04Z</time>
      </trkpt>
      <trkpt lat="44.47011" lon="1.3725">
        <ele>112</ele>
        <time>2023-10-30T09:24:39Z</time>
      </trkpt>
      <trkpt lat="44.47019" lon="1.37263">
        <ele>112</ele>
        <time>2023-10-30T09:24:56Z</time>
      </trkpt>
      <trkpt lat="44.47043" lon="1.37241">
        <ele>112</ele>
        <time>2023-10-30T09:25:34Z</time>
      </trkpt>
      <trkpt lat="44.47073" lon="1.3722">
        <ele>114</ele>
        <time>2023-10-30T09:26:19Z</time>
      </trkpt>
      <trkpt lat="44.47104" lon="1.37203">
        <ele>116</ele>
        <time>2023-10-30T09:27:03Z</time>
      </trkpt>
      <trkpt lat="44.4713" lon="1.37182">
        <ele>119</ele>
        <time>2023-10-30T09:27:43Z</time>
      </trkpt>
      <trkpt lat="44.47158" lon="1.37166">
        <ele>122</ele>
        <time>2023-10-30T09:28:23Z</time>
      </trkpt>
      <trkpt lat="44.47181" lon="1.37154">
        <ele>122</ele>
        <time>2023-10-30T09:28:56Z</time>
      </trkpt>
      <trkpt lat="44.47191" lon="1.3711">
        <ele>123</ele>
        <time>2023-10-30T09:29:40Z</time>
      </trkpt>
      <trkpt lat="44.472" lon="1.37066">
        <ele>124</ele>
        <time>2023-10-30T09:30:24Z</time>
      </trkpt>
      <trkpt lat="44.47208" lon="1.37036">
        <ele>124</ele>
        <time>2023-10-30T09:30:54Z</time>
      </trkpt>
      <trkpt lat="44.4722" lon="1.37001">
        <ele>124</ele>
        <time>2023-10-30T09:31:31Z</time>
      </trkpt>
      <trkpt lat="44.47235" lon="1.36972">
        <ele>123</ele>
        <time>2023-10-30T09:32:05Z</time>
      </trkpt>
      <trkpt lat="44.4725" lon="1.36951">
        <ele>123</ele>
        <time>2023-10-30T09:32:34Z</time>
      </trkpt>
      <trkpt lat="44.47268" lon="1.36921">
        <ele>123</ele>
        <time>2023-10-30T09:33:11Z</time>
      </trkpt>
      <trkpt lat="44.47289" lon="1.36902">
        <ele>125</ele>
        <time>2023-10-30T09:33:44Z</time>
      </trkpt>
      <trkpt lat="44.47305" lon="1.36885">
        <ele>126</ele>
        <time>2023-10-30T09:34:11Z</time>
      </trkpt>
      <trkpt lat="44.47323" lon="1.36861">
        <ele>127</ele>
        <time>2023-10-30T09:34:44Z</time>
      </trkpt>
      <trkpt lat="44.47335" lon="1.36883">
        <ele>129</ele>
        <time>2023-10-30T09:35:11Z</time>
      </trkpt>
      <trkpt lat="44.47354" lon="1.36916">
        <ele>131</ele>
        <time>2023-10-30T09:35:51Z</time>
      </trkpt>
      <trkpt lat="44.47371" lon="1.36938">
        <ele>131</ele>
        <time>2023-10-30T09:36:22Z</time>
      </trkpt>
      <trkpt lat="44.47397" lon="1.36923">
        <ele>132</ele>
        <time>2023-10-30T09:36:59Z</time>
      </trkpt>
      <trkpt lat="44.47425" lon="1.36904">
        <ele>133</ele>
        <time>2023-10-30T09:37:41Z</time>
      </trkpt>
      <trkpt lat="44.47469" lon="1.36882">
        <ele>134</ele>
        <time>2023-10-30T09:38:43Z</time>
      </trkpt>
      <trkpt lat="44.47496" lon="1.36865">
        <ele>135</ele>
        <time>2023-10-30T09:39:23Z</time>
      </trkpt>
      <trkpt lat="44.47524" lon="1.36848">
        <ele>135</ele>
        <time>2023-10-30T09:40:03Z</time>
      </trkpt>
      <trkpt lat="44.47559" lon="1.36843">
        <ele>134</ele>
        <time>2023-10-30T09:40:50Z</time>
      </trkpt>
      <trkpt lat="44.47591" lon="1.36847">
        <ele>134</ele>
        <time>2023-10-30T09:41:33Z</time>
      </trkpt>
      <trkpt lat="44.47621" lon="1.36844">
        <ele>136</ele>
        <time>2023-10-30T09:42:13Z</time>
      </trkpt>
      <trkpt lat="44.47649" lon="1.36836">
        <ele>139</ele>
        <time>2023-10-30T09:42:51Z</time>
      </trkpt>
      <trkpt lat="44.47678" lon="1.36853">
        <ele>138</ele>
        <time>2023-10-30T09:43:33Z</time>
      </trkpt>
      <trkpt lat="44.47694" lon="1.36874">
        <ele>137</ele>
        <time>2023-10-30T09:44:03Z</time>
      </trkpt>
      <trkpt lat="44.4772" lon="1.36889">
        <ele>138</ele>
        <time>2023-10-30T09:44:40Z</time>
      </trkpt>
      <trkpt lat="44.47742" lon="1.36909">
        <ele>138</ele>
        <time>2023-10-30T09:45:15Z</time>
      </trkpt>
      <trkpt lat="44.47764" lon="1.36926">
        <ele>137</ele>
        <time>2023-10-30T09:45:49Z</time>
      </trkpt>
      <trkpt lat="44.47788" lon="1.36945">
        <ele>137</ele>
        <time>2023-10-30T09:46:26Z</time>
      </trkpt>
      <trkpt lat="44.47802" lon="1.36956">
        <ele>137</ele>
        <time>2023-10-30T09:46:47Z</time>
      </trkpt>
      <trkpt lat="44.47816" lon="1.36972">
        <ele>138</ele>
        <time>2023-10-30T09:47:11Z</time>
      </trkpt>
      <trkpt lat="44.4783" lon="1.36985">
        <ele>139</ele>
        <time>2023-10-30T09:47:33Z</time>
      </trkpt>
      <trkpt lat="44.47848" lon="1.37002">
        <ele>140</ele>
        <time>2023-10-30T09:48:02Z</time>
      </trkpt>
      <trkpt lat="44.47857" lon="1.36995">
        <ele>142</ele>
        <time>2023-10-30T09:48:16Z</time>
      </trkpt>
      <trkpt lat="44.4786" lon="1.36976">
        <ele>143</ele>
        <time>2023-10-30T09:48:35Z</time>
      </trkpt>
      <trkpt lat="44.47867" lon="1.36951">
        <ele>144</ele>
        <time>2023-10-30T09:49:00Z</time>
      </trkpt>
      <trkpt lat="44.47873" lon="1.36928">
        <ele>145</ele>
        <time>2023-10-30T09:49:24Z</time>
      </trkpt>
      <trkpt lat="44.47886" lon="1.36895">
        <ele>145</ele>
        <time>2023-10-30T09:49:59Z</time>
      </trkpt>
      <trkpt lat="44.47894" lon="1.36868">
        <ele>144</ele>
        <time>2023-10-30T09:50:27Z</time>
      </trkpt>
      <trkpt lat="44.47906" lon="1.36837">
        <ele>142</ele>
        <time>2023-10-30T09:51:01Z</time>
      </trkpt>
      <trkpt lat="44.47912" lon="1.36818">
        <ele>142</ele>
        <time>2023-10-30T09:51:21Z</time>
      </trkpt>
      <trkpt lat="44.47923" lon="1.36796">
        <ele>141</ele>
        <time>2023-10-30T09:51:46Z</time>
      </trkpt>
      <trkpt lat="44.47926" lon="1.36779">
        <ele>140</ele>
        <time>2023-10-30T09:52:03Z</time>
      </trkpt>
      <trkpt lat="44.47933" lon="1.36761">
        <ele>139</ele>
        <time>2023-10-30T09:52:22Z</time>
      </trkpt>
      <trkpt lat="44.47937" lon="1.36746">
        <ele>139</ele>
        <time>2023-10-30T09:52:38Z</time>
      </trkpt>
      <trkpt lat="44.47944" lon="1.3672">
        <ele>138</ele>
        <time>2023-10-30T09:53:04Z</time>
      </trkpt>
      <trkpt lat="44.47947" lon="1.36704">
        <ele>137</ele>
        <time>2023-10-30T09:53:20Z</time>
      </trkpt>
      <trkpt lat="44.47951" lon="1.36687">
        <ele>136</ele>
        <time>2023-10-30T09:53:37Z</time>
      </trkpt>
      <trkpt lat="44.47955" lon="1.36675">
        <ele>136</ele>
        <time>2023-10-30T09:53:50Z</time>
      </trkpt>
      <trkpt lat="44.47961" lon="1.36652">
        <ele>135</ele>
        <time>2023-10-30T09:54:13Z</time>
      </trkpt>
      <trkpt lat="44.47967" lon="1.36626">
        <ele>133</ele>
        <time>2023-10-30T09:54:39Z</time>
      </trkpt>
      <trkpt lat="44.4797" lon="1.36601">
        <ele>131</ele>
        <time>2023-10-30T09:55:03Z</time>
      </trkpt>
      <trkpt lat="44.47974" lon="1.36574">
        <ele>129</ele>
        <time>2023-10-30T09:55:29Z</time>
      </trkpt>
      <trkpt lat="44.47974" lon="1.36551">
        <ele>124</ele>
        <time>2023-10-30T09:55:51Z</time>
      </trkpt>
      <trkpt lat="44.47975" lon="1.36541">
        <ele>123</ele>
        <time>2023-10-30T09:56:01Z</time>
      </trkpt>
      <trkpt lat="44.47965" lon="1.36532">
        <ele>121</ele>
        <time>2023-10-30T09:56:17Z</time>
      </trkpt>
      <trkpt lat="44.47954" lon="1.36529">
        <ele>120</ele>
        <time>2023-10-30T09:56:32Z</time>
      </trkpt>
      <trkpt lat="44.47946" lon="1.36523">
        <ele>119</ele>
        <time>2023-10-30T09:56:44Z</time>
      </trkpt>
      <trkpt lat="44.47964" lon="1.36524">
        <ele>119</ele>
        <time>2023-10-30T09:57:08Z</time>
      </trkpt>
      <trkpt lat="44.47983" lon="1.36528">
        <ele>120</ele>
        <time>2023-10-30T09:57:33Z</time>
      </trkpt>
      <trkpt lat="44.48004" lon="1.36529">
        <ele>120</ele>
        <time>2023-10-30T09:58:01Z</time>
      </trkpt>
      <trkpt lat="44.48024" lon="1.36531">
        <ele>120</ele>
        <time>2023-10-30T09:58:28Z</time>
      </trkpt>
      <trkpt lat="44.48045" lon="1.36533">
        <ele>120</ele>
        <time>2023-10-30T09:58:56Z</time>
      </trkpt>
      <trkpt lat="44.48068" lon="1.36538">
        <ele>120</ele>
        <time>2023-10-30T09:59:27Z</time>
      </trkpt>
      <trkpt lat="44.48084" lon="1.36542">
        <ele>120</ele>
        <time>2023-10-30T09:59:49Z</time>
      </trkpt>
      <trkpt lat="44.48102" lon="1.36541">
        <ele>119</ele>
        <time>2023-10-30T10:00:13Z</time>
      </trkpt>
      <trkpt lat="44.48113" lon="1.36549">
        <ele>119</ele>
        <time>2023-10-30T10:00:30Z</time>
      </trkpt>
      <trkpt lat="44.4812" lon="1.36561">
        <ele>119</ele>
        <time>2023-10-30T10:00:44Z</time>
      </trkpt>
      <trkpt lat="44.48132" lon="1.36561">
        <ele>118</ele>
        <time>2023-10-30T10:01:00Z</time>
      </trkpt>
      <trkpt lat="44.48136" lon="1.36573">
        <ele>119</ele>
        <time>2023-10-30T10:01:13Z</time>
      </trkpt>
      <trkpt lat="44.48141" lon="1.36586">
        <ele>120</ele>
        <time>2023-10-30T10:01:27Z</time>
      </trkpt>
      <trkpt lat="44.48153" lon="1.36604">
        <ele>120</ele>
        <time>2023-10-30T10:01:50Z</time>
      </trkpt>
      <trkpt lat="44.48165" lon="1.36623">
        <ele>121</ele>
        <time>2023-10-30T10:02:15Z</time>
      </trkpt>
      <trkpt lat="44.48186" lon="1.36647">
        <ele>121</ele>
        <time>2023-10-30T10:02:51Z</time>
      </trkpt>
      <trkpt lat="44.48206" lon="1.36674">
        <ele>122</ele>
        <time>2023-10-30T10:03:28Z</time>
      </trkpt>
      <trkpt lat="44.48229" lon="1.36696">
        <ele>123</ele>
        <time>2023-10-30T10:04:05Z</time>
      </trkpt>
      <trkpt lat="44.48271" lon="1.36719">
        <ele>124</ele>
        <time>2023-10-30T10:05:05Z</time>
      </trkpt>
      <trkpt lat="44.48294" lon="1.36731">
        <ele>124</ele>
        <time>2023-10-30T10:05:38Z</time>
      </trkpt>
      <trkpt lat="44.48316" lon="1.36742">
        <ele>125</ele>
        <time>2023-10-30T10:06:09Z</time>
      </trkpt>
      <trkpt lat="44.48336" lon="1.3675">
        <ele>125</ele>
        <time>2023-10-30T10:06:37Z</time>
      </trkpt>
      <trkpt lat="44.48363" lon="1.36761">
        <ele>124</ele>
        <time>2023-10-30T10:07:14Z</time>
      </trkpt>
      <trkpt lat="44.48385" lon="1.36769">
        <ele>123</ele>
        <time>2023-10-30T10:07:45Z</time>
      </trkpt>
      <trkpt lat="44.48409" lon="1.36777">
        <ele>123</ele>
        <time>2023-10-30T10:08:18Z</time>
      </trkpt>
      <trkpt lat="44.48435" lon="1.36788">
        <ele>124</ele>
        <time>2023-10-30T10:08:54Z</time>
      </trkpt>
      <trkpt lat="44.48456" lon="1.36797">
        <ele>124</ele>
        <time>2023-10-30T10:09:23Z</time>
      </trkpt>
      <trkpt lat="44.48479" lon="1.36807">
        <ele>124</ele>
        <time>2023-10-30T10:09:55Z</time>
      </trkpt>
      <trkpt lat="44.48505" lon="1.36816">
        <ele>124</ele>
        <time>2023-10-30T10:10:31Z</time>
      </trkpt>
      <trkpt lat="44.48532" lon="1.36826">
        <ele>126</ele>
        <time>2023-10-30T10:11:08Z</time>
      </trkpt>
      <trkpt lat="44.48558" lon="1.36839">
        <ele>128</ele>
        <time>2023-10-30T10:11:45Z</time>
      </trkpt>
      <trkpt lat="44.48584" lon="1.36851">
        <ele>130</ele>
        <time>2023-10-30T10:12:22Z</time>
      </trkpt>
      <trkpt lat="44.48608" lon="1.36862">
        <ele>129</ele>
        <time>2023-10-30T10:12:55Z</time>
      </trkpt>
      <trkpt lat="44.4863" lon="1.36872">
        <ele>128</ele>
        <time>2023-10-30T10:13:26Z</time>
      </trkpt>
      <trkpt lat="44.48646" lon="1.36888">
        <ele>128</ele>
        <time>2023-10-30T10:13:52Z</time>
      </trkpt>
      <trkpt lat="44.48667" lon="1.36905">
        <ele>128</ele>
        <time>2023-10-30T10:14:25Z</time>
      </trkpt>
      <trkpt lat="44.48683" lon="1.36918">
        <ele>128</ele>
        <time>2023-10-30T10:14:50Z</time>
      </trkpt>
      <trkpt lat="44.48702" lon="1.36939">
        <ele>129</ele>
        <time>2023-10-30T10:15:22Z</time>
      </trkpt>
      <trkpt lat="44.48717" lon="1.36961">
        <ele>129</ele>
        <time>2023-10-30T10:15:51Z</time>
      </trkpt>
      <trkpt lat="44.48727" lon="1.36976">
        <ele>130</ele>
        <time>2023-10-30T10:16:10Z</time>
      </trkpt>
      <trkpt lat="44.48736" lon="1.36991">
        <ele>130</ele>
        <time>2023-10-30T10:16:29Z</time>
      </trkpt>
      <trkpt lat="44.48746" lon="1.37009">
        <ele>130</ele>
        <time>2023-10-30T10:16:51Z</time>
      </trkpt>
      <trkpt lat="44.48755" lon="1.37024">
        <ele>130</ele>
        <time>2023-10-30T10:17:09Z</time>
      </trkpt>
      <trkpt lat="44.48765" lon="1.37039">
        <ele>130</ele>
        <time>2023-10-30T10:17:29Z</time>
      </trkpt>
      <trkpt lat="44.48773" lon="1.37055">
        <ele>131</ele>
        <time>2023-10-30T10:17:48Z</time>
      </trkpt>
      <trkpt lat="44.48781" lon="1.37071">
        <ele>132</ele>
        <time>2023-10-30T10:18:06Z</time>
      </trkpt>
      <trkpt lat="44.48789" lon="1.37086">
        <ele>132</ele>
        <time>2023-10-30T10:18:24Z</time>
      </trkpt>
      <trkpt lat="44.488" lon="1.37107">
        <ele>131</ele>
        <time>2023-10-30T10:18:49Z</time>
      </trkpt>
      <trkpt lat="44.48809" lon="1.37127">
        <ele>130</ele>
        <time>2023-10-30T10:19:11Z</time>
      </trkpt>
      <trkpt lat="44.48821" lon="1.37143">
        <ele>130</ele>
        <time>2023-10-30T10:19:33Z</time>
      </trkpt>
      <trkpt lat="44.48833" lon="1.37166">
        <ele>129</ele>
        <time>2023-10-30T10:20:00Z</time>
      </trkpt>
      <trkpt lat="44.48843" lon="1.37181">
        <ele>130</ele>
        <time>2023-10-30T10:20:20Z</time>
      </trkpt>
      <trkpt lat="44.48852" lon="1.372">
        <ele>131</ele>
        <time>2023-10-30T10:20:42Z</time>
      </trkpt>
      <trkpt lat="44.48861" lon="1.37213">
        <ele>132</ele>
        <time>2023-10-30T10:20:59Z</time>
      </trkpt>
      <trkpt lat="44.48868" lon="1.3723">
        <ele>133</ele>
        <time>2023-10-30T10:21:18Z</time>
      </trkpt>
      <trkpt lat="44.48878" lon="1.37249">
        <ele>134</ele>
        <time>2023-10-30T10:21:40Z</time>
      </trkpt>
      <trkpt lat="44.48885" lon="1.37267">
        <ele>135</ele>
        <time>2023-10-30T10:22:00Z</time>
      </trkpt>
      <trkpt lat="44.48893" lon="1.37289">
        <ele>135</ele>
        <time>2023-10-30T10:22:23Z</time>
      </trkpt>
      <trkpt lat="44.48899" lon="1.3731">
        <ele>135</ele>
        <time>2023-10-30T10:22:45Z</time>
      </trkpt>
      <trkpt lat="44.48907" lon="1.37334">
        <ele>135</ele>
        <time>2023-10-30T10:23:10Z</time>
      </trkpt>
      <trkpt lat="44.48912" lon="1.37351">
        <ele>135</ele>
        <time>2023-10-30T10:23:27Z</time>
      </trkpt>
      <trkpt lat="44.48915" lon="1.37377">
        <ele>135</ele>
        <time>2023-10-30T10:23:53Z</time>
      </trkpt>
      <trkpt lat="44.48918" lon="1.37405">
        <ele>134</ele>
        <time>2023-10-30T10:24:19Z</time>
      </trkpt>
      <trkpt lat="44.4892" lon="1.37444">
        <ele>134</ele>
        <time>2023-10-30T10:24:57Z</time>
      </trkpt>
      <trkpt lat="44.48922" lon="1.37477">
        <ele>134</ele>
        <time>2023-10-30T10:25:28Z</time>
      </trkpt>
      <trkpt lat="44.48922" lon="1.37502">
        <ele>134</ele>
        <time>2023-10-30T10:25:52Z</time>
      </trkpt>
      <trkpt lat="44.48924" lon="1.37542">
        <ele>135</ele>
        <time>2023-10-30T10:26:30Z</time>
      </trkpt>
      <trkpt lat="44.48925" lon="1.37581">
        <ele>136</ele>
        <time>2023-10-30T10:27:07Z</time>
      </trkpt>
      <trkpt lat="44.48925" lon="1.37614">
        <ele>137</ele>
        <time>2023-10-30T10:27:39Z</time>
      </trkpt>
      <trkpt lat="44.48925" lon="1.37653">
        <ele>137</ele>
        <time>2023-10-30T10:28:16Z</time>
      </trkpt>
      <trkpt lat="44.48924" lon="1.37686">
        <ele>138</ele>
        <time>2023-10-30T10:28:47Z</time>
      </trkpt>
      <trkpt lat="44.48924" lon="1.37724">
        <ele>137</ele>
        <time>2023-10-30T10:29:24Z</time>
      </trkpt>
      <trkpt lat="44.48924" lon="1.37762">
        <ele>137</ele>
        <time>2023-10-30T10:30:00Z</time>
      </trkpt>
      <trkpt lat="44.48924" lon="1.37804">
        <ele>138</ele>
        <time>2023-10-30T10:30:40Z</time>
      </trkpt>
      <trkpt lat="44.48924" lon="1.37842">
        <ele>139</ele>
        <time>2023-10-30T10:31:16Z</time>
      </trkpt>
      <trkpt lat="44.48923" lon="1.37877">
        <ele>140</ele>
        <time>2023-10-30T10:31:49Z</time>
      </trkpt>
      <trkpt lat="44.48922" lon="1.37915">
        <ele>140</ele>
        <time>2023-10-30T10:32:25Z</time>
      </trkpt>
      <trkpt lat="44.48924" lon="1.37951">
        <ele>140</ele>
        <time>2023-10-30T10:33:00Z</time>
      </trkpt>
      <trkpt lat="44.48922" lon="1.37971">
        <ele>141</ele>
        <time>2023-10-30T10:33:19Z</time>
      </trkpt>
      <trkpt lat="44.48925" lon="1.37998">
        <ele>141</ele>
        <time>2023-10-30T10:33:45Z</time>
      </trkpt>
      <trkpt lat="44.48928" lon="1.38026">
        <ele>142</ele>
        <time>2023-10-30T10:34:12Z</time>
      </trkpt>
      <trkpt lat="44.4893" lon="1.38048">
        <ele>143</ele>
        <time>2023-10-30T10:34:33Z</time>
      </trkpt>
      <trkpt lat="44.48933" lon="1.38067">
        <ele>143</ele>
        <time>2023-10-30T10:34:52Z</time>
      </trkpt>
      <trkpt lat="44.48939" lon="1.3809">
        <ele>144</ele>
        <time>2023-10-30T10:35:15Z</time>
      </trkpt>
      <trkpt lat="44.48944" lon="1.38107">
        <ele>144</ele>
        <time>2023-10-30T10:35:32Z</time>
      </trkpt>
      <trkpt lat="44.48949" lon="1.38126">
        <ele>144</ele>
        <time>2023-10-30T10:35:52Z</time>
      </trkpt>
      <trkpt lat="44.48958" lon="1.3815">
        <ele>144</ele>
        <time>2023-10-30T10:36:18Z</time>
      </trkpt>
      <trkpt lat="44.48965" lon="1.38172">
        <ele>144</ele>
        <time>2023-10-30T10:36:40Z</time>
      </trkpt>
      <trkpt lat="44.48976" lon="1.3819">
        <ele>143</ele>
        <time>2023-10-30T10:37:03Z</time>
      </trkpt>
      <trkpt lat="44.48987" lon="1.38206">
        <ele>141</ele>
        <time>2023-10-30T10:37:24Z</time>
      </trkpt>
      <trkpt lat="44.48999" lon="1.38224">
        <ele>140</ele>
        <time>2023-10-30T10:37:48Z</time>
      </trkpt>
      <trkpt lat="44.49012" lon="1.38241">
        <ele>139</ele>
        <time>2023-10-30T10:38:11Z</time>
      </trkpt>
      <trkpt lat="44.49024" lon="1.38257">
        <ele>138</ele>
        <time>2023-10-30T10:38:33Z</time>
      </trkpt>
      <trkpt lat="44.49037" lon="1.3827">
        <ele>136</ele>
        <time>2023-10-30T10:38:55Z</time>
      </trkpt>
      <trkpt lat="44.49048" lon="1.38282">
        <ele>135</ele>
        <time>2023-10-30T10:39:13Z</time>
      </trkpt>
      <trkpt lat="44.49067" lon="1.38294">
        <ele>134</ele>
        <time>2023-10-30T10:39:41Z</time>
      </trkpt>
      <trkpt lat="44.49083" lon="1.38306">
        <ele>133</ele>
        <time>2023-10-30T10:40:05Z</time>
      </trkpt>
      <trkpt lat="44.49101" lon="1.38313">
        <ele>133</ele>
        <time>2023-10-30T10:40:30Z</time>
      </trkpt>
      <trkpt lat="44.49128" lon="1.38325">
        <ele>133</ele>
        <time>2023-10-30T10:41:08Z</time>
      </trkpt>
      <trkpt lat="44.49157" lon="1.38335">
        <ele>134</ele>
        <time>2023-10-30T10:41:48Z</time>
      </trkpt>
      <trkpt lat="44.49186" lon="1.38344">
        <ele>134</ele>
        <time>2023-10-30T10:42:28Z</time>
      </trkpt>
      <trkpt lat="44.4921" lon="1.38354">
        <ele>134</ele>
        <time>2023-10-30T10:43:01Z</time>
      </trkpt>
      <trkpt lat="44.49242" lon="1.38364">
        <ele>135</ele>
        <time>2023-10-30T10:43:45Z</time>
      </trkpt>
      <trkpt lat="44.49264" lon="1.38382">
        <ele>133</ele>
        <time>2023-10-30T10:44:19Z</time>
      </trkpt>
      <trkpt lat="44.49287" lon="1.38397">
        <ele>132</ele>
        <time>2023-10-30T10:44:53Z</time>
      </trkpt>
      <trkpt lat="44.49312" lon="1.38415">
        <ele>132</ele>
        <time>2023-10-30T10:45:30Z</time>
      </trkpt>
      <trkpt lat="44.4933" lon="1.38431">
        <ele>132</ele>
        <time>2023-10-30T10:45:59Z</time>
      </trkpt>
      <trkpt lat="44.49348" lon="1.38449">
        <ele>132</ele>
        <time>2023-10-30T10:46:28Z</time>
      </trkpt>
      <trkpt lat="44.49363" lon="1.38467">
        <ele>132</ele>
        <time>2023-10-30T10:46:54Z</time>
      </trkpt>
      <trkpt lat="44.49374" lon="1.38485">
        <ele>132</ele>
        <time>2023-10-30T10:47:17Z</time>
      </trkpt>
      <trkpt lat="44.49395" lon="1.38508">
        <ele>134</ele>
        <time>2023-10-30T10:47:53Z</time>
      </trkpt>
      <trkpt lat="44.49408" lon="1.38531">
        <ele>133</ele>
        <time>2023-10-30T10:48:20Z</time>
      </trkpt>
      <trkpt lat="44.4942" lon="1.38556">
        <ele>132</ele>
        <time>2023-10-30T10:48:49Z</time>
      </trkpt>
      <trkpt lat="44.49433" lon="1.3858">
        <ele>131</ele>
        <time>2023-10-30T10:49:18Z</time>
      </trkpt>
      <trkpt lat="44.49443" lon="1.38603">
        <ele>130</ele>
        <time>2023-10-30T10:49:43Z</time>
      </trkpt>
      <trkpt lat="44.49452" lon="1.38624">
        <ele>130</ele>
        <time>2023-10-30T10:50:07Z</time>
      </trkpt>
      <trkpt lat="44.49462" lon="1.38652">
        <ele>129</ele>
        <time>2023-10-30T10:50:37Z</time>
      </trkpt>
      <trkpt lat="44.4947" lon="1.38674">
        <ele>129</ele>
        <time>2023-10-30T10:51:00Z</time>
      </trkpt>
      <trkpt lat="44.49477" lon="1.38696">
        <ele>129</ele>
        <time>2023-10-30T10:51:23Z</time>
      </trkpt>
      <trkpt lat="44.49485" lon="1.38721">
        <ele>129</ele>
        <time>2023-10-30T10:51:49Z</time>
      </trkpt>
      <trkpt lat="44.49489" lon="1.38709">
        <ele>131</ele>
        <time>2023-10-30T10:52:02Z</time>
      </trkpt>
      <trkpt lat="44.49487" lon="1.38699">
        <ele>131</ele>
        <time>2023-10-30T10:52:12Z</time>
      </trkpt>
      <trkpt lat="44.49479" lon="1.38677">
        <ele>131</ele>
        <time>2023-10-30T10:52:35Z</time>
      </trkpt>
      <trkpt lat="44.49475" lon="1.38654">
        <ele>132</ele>
        <time>2023-10-30T10:52:58Z</time>
      </trkpt>
      <trkpt lat="44.49473" lon="1.38631">
        <ele>133</ele>
        <time>2023-10-30T10:53:20Z</time>
      </trkpt>
      <trkpt lat="44.49472" lon="1.38611">
        <ele>135</ele>
        <time>2023-10-30T10:53:39Z</time>
      </trkpt>
      <trkpt lat="44.49475" lon="1.38587">
        <ele>138</ele>
        <time>2023-10-30T10:54:02Z</time>
      </trkpt>
      <trkpt lat="44.49476" lon="1.38561">
        <ele>140</ele>
        <time>2023-10-30T10:54:27Z</time>
      </trkpt>
      <trkpt lat="44.49479" lon="1.3854">
        <ele>142</ele>
        <time>2023-10-30T10:54:47Z</time>
      </trkpt>
      <trkpt lat="44.49488" lon="1.38518">
        <ele>144</ele>
        <time>2023-10-30T10:55:11Z</time>
      </trkpt>
      <trkpt lat="44.49499" lon="1.38498">
        <ele>146</ele>
        <time>2023-10-30T10:55:35Z</time>
      </trkpt>
      <trkpt lat="44.4951" lon="1.38482">
        <ele>146</ele>
        <time>2023-10-30T10:55:56Z</time>
      </trkpt>
      <trkpt lat="44.49525" lon="1.38459">
        <ele>146</ele>
        <time>2023-10-30T10:56:26Z</time>
      </trkpt>
      <trkpt lat="44.49537" lon="1.38438">
        <ele>146</ele>
        <time>2023-10-30T10:56:52Z</time>
      </trkpt>
      <trkpt lat="44.49547" lon="1.38425">
        <ele>146</ele>
        <time>2023-10-30T10:57:10Z</time>
      </trkpt>
      <trkpt lat="44.49557" lon="1.38403">
        <ele>146</ele>
        <time>2023-10-30T10:57:35Z</time>
      </trkpt>
      <trkpt lat="44.49544" lon="1.38389">
        <ele>145</ele>
        <time>2023-10-30T10:57:57Z</time>
      </trkpt>
      <trkpt lat="44.4953" lon="1.38379">
        <ele>145</ele>
        <time>2023-10-30T10:58:18Z</time>
      </trkpt>
      <trkpt lat="44.49516" lon="1.38369">
        <ele>145</ele>
        <time>2023-10-30T10:58:39Z</time>
      </trkpt>
      <trkpt lat="44.49515" lon="1.3836">
        <ele>145</ele>
        <time>2023-10-30T10:58:47Z</time>
      </trkpt>
      <trkpt lat="44.49528" lon="1.38328">
        <ele>145</ele>
        <time>2023-10-30T10:59:22Z</time>
      </trkpt>
      <trkpt lat="44.49533" lon="1.38307">
        <ele>145</ele>
        <time>2023-10-30T10:59:43Z</time>
      </trkpt>
      <trkpt lat="44.49538" lon="1.38272">
        <ele>145</ele>
        <time>2023-10-30T11:00:17Z</time>
      </trkpt>
      <trkpt lat="44.49545" lon="1.38255">
        <ele>145</ele>
        <time>2023-10-30T11:00:36Z</time>
      </trkpt>
      <trkpt lat="44.49558" lon="1.38231">
        <ele>145</ele>
        <time>2023-10-30T11:01:05Z</time>
      </trkpt>
      <trkpt lat="44.4957" lon="1.38207">
        <ele>144</ele>
        <time>2023-10-30T11:01:33Z</time>
      </trkpt>
      <trkpt lat="44.49582" lon="1.38187">
        <ele>144</ele>
        <time>2023-10-30T11:01:58Z</time>
      </trkpt>
      <trkpt lat="44.49588" lon="1.38166">
        <ele>144</ele>
        <time>2023-10-30T11:02:19Z</time>
      </trkpt>
      <trkpt lat="44.496" lon="1.38154">
        <ele>144</ele>
        <time>2023-10-30T11:02:39Z</time>
      </trkpt>
      <trkpt lat="44.49623" lon="1.38146">
        <ele>144</ele>
        <time>2023-10-30T11:03:10Z</time>
      </trkpt>
      <trkpt lat="44.49618" lon="1.38133">
        <ele>144</ele>
        <time>2023-10-30T11:03:24Z</time>
      </trkpt>
      <trkpt lat="44.49608" lon="1.38116">
        <ele>144</ele>
        <time>2023-10-30T11:03:45Z</time>
      </trkpt>
      <trkpt lat="44.49601" lon="1.38097">
        <ele>145</ele>
        <time>2023-10-30T11:04:06Z</time>
      </trkpt>
      <trkpt lat="44.49594" lon="1.38076">
        <ele>145</ele>
        <time>2023-10-30T11:04:28Z</time>
      </trkpt>
      <trkpt lat="44.49581" lon="1.38045">
        <ele>146</ele>
        <time>2023-10-30T11:05:02Z</time>
      </trkpt>
      <trkpt lat="44.49574" lon="1.38027">
        <ele>146</ele>
        <time>2023-10-30T11:05:22Z</time>
      </trkpt>
      <trkpt lat="44.49561" lon="1.38006">
        <ele>147</ele>
        <time>2023-10-30T11:05:48Z</time>
      </trkpt>
      <trkpt lat="44.4955" lon="1.37986">
        <ele>146</ele>
        <time>2023-10-30T11:06:12Z</time>
      </trkpt>
      <trkpt lat="44.4954" lon="1.37969">
        <ele>146</ele>
        <time>2023-10-30T11:06:33Z</time>
      </trkpt>
      <trkpt lat="44.49528" lon="1.3795">
        <ele>146</ele>
        <time>2023-10-30T11:06:57Z</time>
      </trkpt>
      <trkpt lat="44.49513" lon="1.37926">
        <ele>145</ele>
        <time>2023-10-30T11:07:28Z</time>
      </trkpt>
      <trkpt lat="44.49495" lon="1.37902">
        <ele>145</ele>
        <time>2023-10-30T11:08:01Z</time>
      </trkpt>
      <trkpt lat="44.49476" lon="1.37876">
        <ele>145</ele>
        <time>2023-10-30T11:08:36Z</time>
      </trkpt>
      <trkpt lat="44.49461" lon="1.37861">
        <ele>145</ele>
        <time>2023-10-30T11:09:01Z</time>
      </trkpt>
      <trkpt lat="44.49446" lon="1.37846">
        <ele>145</ele>
        <time>2023-10-30T11:09:25Z</time>
      </trkpt>
      <trkpt lat="44.49435" lon="1.37831">
        <ele>145</ele>
        <time>2023-10-30T11:09:46Z</time>
      </trkpt>
      <trkpt lat="44.49423" lon="1.37826">
        <ele>145</ele>
        <time>2023-10-30T11:10:02Z</time>
      </trkpt>
      <trkpt lat="44.49413" lon="1.37816">
        <ele>145</ele>
        <time>2023-10-30T11:10:19Z</time>
      </trkpt>
      <trkpt lat="44.49403" lon="1.37807">
        <ele>145</ele>
        <time>2023-10-30T11:10:35Z</time>
      </trkpt>
      <trkpt lat="44.4939" lon="1.37797">
        <ele>145</ele>
        <time>2023-10-30T11:10:55Z</time>
      </trkpt>
      <trkpt lat="44.49379" lon="1.37785">
        <ele>144</ele>
        <time>2023-10-30T11:11:13Z</time>
      </trkpt>
      <trkpt lat="44.49365" lon="1.37774">
        <ele>144</ele>
        <time>2023-10-30T11:11:35Z</time>
      </trkpt>
      <trkpt lat="44.49352" lon="1.37764">
        <ele>143</ele>
        <time>2023-10-30T11:11:54Z</time>
      </trkpt>
      <trkpt lat="44.49342" lon="1.37756">
        <ele>142</ele>
        <time>2023-10-30T11:12:10Z</time>
      </trkpt>
      <trkpt lat="44.49324" lon="1.37743">
        <ele>142</ele>
        <time>2023-10-30T11:12:37Z</time>
      </trkpt>
      <trkpt lat="44.49307" lon="1.37731">
        <ele>141</ele>
        <time>2023-10-30T11:13:02Z</time>
      </trkpt>
      <trkpt lat="44.49291" lon="1.37719">
        <ele>141</ele>
        <time>2023-10-30T11:13:26Z</time>
      </trkpt>
      <trkpt lat="44.49277" lon="1.37709">
        <ele>140</ele>
        <time>2023-10-30T11:13:47Z</time>
      </trkpt>
      <trkpt lat="44.49262" lon="1.37697">
        <ele>140</ele>
        <time>2023-10-30T11:14:10Z</time>
      </trkpt>
      <trkpt lat="44.49247" lon="1.37687">
        <ele>139</ele>
        <time>2023-10-30T11:14:33Z</time>
      </trkpt>
      <trkpt lat="44.49232" lon="1.37675">
        <ele>139</ele>
        <time>2023-10-30T11:14:56Z</time>
      </trkpt>
      <trkpt lat="44.49216" lon="1.37666">
        <ele>138</ele>
        <time>2023-10-30T11:15:19Z</time>
      </trkpt>
      <trkpt lat="44.49204" lon="1.3766">
        <ele>139</ele>
        <time>2023-10-30T11:15:36Z</time>
      </trkpt>
      <trkpt lat="44.49189" lon="1.37653">
        <ele>139</ele>
        <time>2023-10-30T11:15:57Z</time>
      </trkpt>
      <trkpt lat="44.4917" lon="1.37643">
        <ele>139</ele>
        <time>2023-10-30T11:16:24Z</time>
      </trkpt>
      <trkpt lat="44.4916" lon="1.37634">
        <ele>139</ele>
        <time>2023-10-30T11:16:40Z</time>
      </trkpt>
      <trkpt lat="44.49148" lon="1.37628">
        <ele>138</ele>
        <time>2023-10-30T11:16:57Z</time>
      </trkpt>
      <trkpt lat="44.49132" lon="1.3762">
        <ele>138</ele>
        <time>2023-10-30T11:17:19Z</time>
      </trkpt>
      <trkpt lat="44.4912" lon="1.37613">
        <ele>138</ele>
        <time>2023-10-30T11:17:37Z</time>
      </trkpt>
      <trkpt lat="44.49104" lon="1.37608">
        <ele>138</ele>
        <time>2023-10-30T11:17:58Z</time>
      </trkpt>
      <trkpt lat="44.49088" lon="1.376">
        <ele>138</ele>
        <time>2023-10-30T11:18:21Z</time>
      </trkpt>
      <trkpt lat="44.49078" lon="1.37596">
        <ele>138</ele>
        <time>2023-10-30T11:18:35Z</time>
      </trkpt>
      <trkpt lat="44.49061" lon="1.3759">
        <ele>138</ele>
        <time>2023-10-30T11:18:58Z</time>
      </trkpt>
      <trkpt lat="44.49044" lon="1.37581">
        <ele>138</ele>
        <time>2023-10-30T11:19:23Z</time>
      </trkpt>
      <trkpt lat="44.49027" lon="1.37566">
        <ele>137</ele>
        <time>2023-10-30T11:19:49Z</time>
      </trkpt>
      <trkpt lat="44.49016" lon="1.37556">
        <ele>137</ele>
        <time>2023-10-30T11:20:07Z</time>
      </trkpt>
      <trkpt lat="44.49006" lon="1.37544">
        <ele>137</ele>
        <time>2023-10-30T11:20:25Z</time>
      </trkpt>
      <trkpt lat="44.48994" lon="1.37533">
        <ele>137</ele>
        <time>2023-10-30T11:20:44Z</time>
      </trkpt>
      <trkpt lat="44.4898" lon="1.37521">
        <ele>136</ele>
        <time>2023-10-30T11:21:06Z</time>
      </trkpt>
      <trkpt lat="44.48969" lon="1.37512">
        <ele>136</ele>
        <time>2023-10-30T11:21:23Z</time>
      </trkpt>
      <trkpt lat="44.48959" lon="1.37501">
        <ele>136</ele>
        <time>2023-10-30T11:21:40Z</time>
      </trkpt>
      <trkpt lat="44.4895" lon="1.37495">
        <ele>135</ele>
        <time>2023-10-30T11:21:53Z</time>
      </trkpt>
      <trkpt lat="44.4894" lon="1.37493">
        <ele>135</ele>
        <time>2023-10-30T11:22:06Z</time>
      </trkpt>
      <trkpt lat="44.48945" lon="1.37515">
        <ele>135</ele>
        <time>2023-10-30T11:22:28Z</time>
      </trkpt>
      <trkpt lat="44.4895" lon="1.37547">
        <ele>136</ele>
        <time>2023-10-30T11:22:59Z</time>
      </trkpt>
      <trkpt lat="44.48957" lon="1.3758">
        <ele>136</ele>
        <time>2023-10-30T11:23:32Z</time>
      </trkpt>
      <trkpt lat="44.48965" lon="1.37611">
        <ele>136</ele>
        <time>2023-10-30T11:24:04Z</time>
      </trkpt>
      <trkpt lat="44.48967" lon="1.37642">
        <ele>136</ele>
        <time>2023-10-30T11:24:33Z</time>
      </trkpt>
      <trkpt lat="44.48966" lon="1.37673">
        <ele>136</ele>
        <time>2023-10-30T11:25:03Z</time>
      </trkpt>
      <trkpt lat="44.48959" lon="1.37684">
        <ele>137</ele>
        <time>2023-10-30T11:25:17Z</time>
      </trkpt>
      <trkpt lat="44.4894" lon="1.37696">
        <ele>137</ele>
        <time>2023-10-30T11:25:45Z</time>
      </trkpt>
      <trkpt lat="44.48932" lon="1.37706">
        <ele>137</ele>
        <time>2023-10-30T11:25:59Z</time>
      </trkpt>
      <trkpt lat="44.48927" lon="1.37709">
        <ele>137</ele>
        <time>2023-10-30T11:26:06Z</time>
      </trkpt>
      <trkpt lat="44.48927" lon="1.37672">
        <ele>138</ele>
        <time>2023-10-30T11:26:41Z</time>
      </trkpt>
      <trkpt lat="44.48929" lon="1.37638">
        <ele>137</ele>
        <time>2023-10-30T11:27:14Z</time>
      </trkpt>
      <trkpt lat="44.48929" lon="1.37609">
        <ele>137</ele>
        <time>2023-10-30T11:27:42Z</time>
      </trkpt>
      <trkpt lat="44.48929" lon="1.37592">
        <ele>136</ele>
        <time>2023-10-30T11:27:58Z</time>
      </trkpt>
      <trkpt lat="44.48928" lon="1.37564">
        <ele>136</ele>
        <time>2023-10-30T11:28:24Z</time>
      </trkpt>
      <trkpt lat="44.48926" lon="1.37534">
        <ele>135</ele>
        <time>2023-10-30T11:28:53Z</time>
      </trkpt>
      <trkpt lat="44.48926" lon="1.37511">
        <ele>135</ele>
        <time>2023-10-30T11:29:15Z</time>
      </trkpt>
      <trkpt lat="44.48927" lon="1.37485">
        <ele>134</ele>
        <time>2023-10-30T11:29:40Z</time>
      </trkpt>
      <trkpt lat="44.48925" lon="1.37462">
        <ele>134</ele>
        <time>2023-10-30T11:30:02Z</time>
      </trkpt>
      <trkpt lat="44.48923" lon="1.37427">
        <ele>134</ele>
        <time>2023-10-30T11:30:35Z</time>
      </trkpt>
      <trkpt lat="44.48921" lon="1.37392">
        <ele>134</ele>
        <time>2023-10-30T11:31:09Z</time>
      </trkpt>
      <trkpt lat="44.48917" lon="1.37366">
        <ele>135</ele>
        <time>2023-10-30T11:31:34Z</time>
      </trkpt>
      <trkpt lat="44.48913" lon="1.37339">
        <ele>135</ele>
        <time>2023-10-30T11:32:00Z</time>
      </trkpt>
      <trkpt lat="44.48906" lon="1.3732">
        <ele>135</ele>
        <time>2023-10-30T11:32:21Z</time>
      </trkpt>
      <trkpt lat="44.489" lon="1.373">
        <ele>135</ele>
        <time>2023-10-30T11:32:41Z</time>
      </trkpt>
      <trkpt lat="44.48892" lon="1.37279">
        <ele>135</ele>
        <time>2023-10-30T11:33:04Z</time>
      </trkpt>
      <trkpt lat="44.48884" lon="1.37257">
        <ele>135</ele>
        <time>2023-10-30T11:33:27Z</time>
      </trkpt>
      <trkpt lat="44.48876" lon="1.37238">
        <ele>134</ele>
        <time>2023-10-30T11:33:48Z</time>
      </trkpt>
      <trkpt lat="44.48868" lon="1.37219">
        <ele>133</ele>
        <time>2023-10-30T11:34:09Z</time>
      </trkpt>
      <trkpt lat="44.4886" lon="1.37203">
        <ele>132</ele>
        <time>2023-10-30T11:34:28Z</time>
      </trkpt>
      <trkpt lat="44.48851" lon="1.37192">
        <ele>131</ele>
        <time>2023-10-30T11:34:44Z</time>
      </trkpt>
      <trkpt lat="44.48841" lon="1.37174">
        <ele>130</ele>
        <time>2023-10-30T11:35:06Z</time>
      </trkpt>
      <trkpt lat="44.48832" lon="1.37157">
        <ele>129</ele>
        <time>2023-10-30T11:35:26Z</time>
      </trkpt>
      <trkpt lat="44.48828" lon="1.37148">
        <ele>130</ele>
        <time>2023-10-30T11:35:36Z</time>
      </trkpt>
      <trkpt lat="44.48819" lon="1.37132">
        <ele>130</ele>
        <time>2023-10-30T11:35:55Z</time>
      </trkpt>
      <trkpt lat="44.48814" lon="1.37123">
        <ele>131</ele>
        <time>2023-10-30T11:36:06Z</time>
      </trkpt>
      <trkpt lat="44.48808" lon="1.37114">
        <ele>131</ele>
        <time>2023-10-30T11:36:18Z</time>
      </trkpt>
      <trkpt lat="44.48799" lon="1.37096">
        <ele>132</ele>
        <time>2023-10-30T11:36:39Z</time>
      </trkpt>
      <trkpt lat="44.48788" lon="1.37077">
        <ele>132</ele>
        <time>2023-10-30T11:37:02Z</time>
      </trkpt>
      <trkpt lat="44.4878" lon="1.37062">
        <ele>131</ele>
        <time>2023-10-30T11:37:20Z</time>
      </trkpt>
      <trkpt lat="44.48773" lon="1.37046">
        <ele>131</ele>
        <time>2023-10-30T11:37:38Z</time>
      </trkpt>
      <trkpt lat="44.48762" lon="1.37028">
        <ele>130</ele>
        <time>2023-10-30T11:38:00Z</time>
      </trkpt>
      <trkpt lat="44.48752" lon="1.37014">
        <ele>129</ele>
        <time>2023-10-30T11:38:19Z</time>
      </trkpt>
      <trkpt lat="44.48745" lon="1.37">
        <ele>129</ele>
        <time>2023-10-30T11:38:36Z</time>
      </trkpt>
      <trkpt lat="44.48735" lon="1.36983">
        <ele>129</ele>
        <time>2023-10-30T11:38:57Z</time>
      </trkpt>
      <trkpt lat="44.48726" lon="1.36969">
        <ele>129</ele>
        <time>2023-10-30T11:39:14Z</time>
      </trkpt>
      <trkpt lat="44.48713" lon="1.36953">
        <ele>129</ele>
        <time>2023-10-30T11:39:38Z</time>
      </trkpt>
      <trkpt lat="44.48699" lon="1.3693">
        <ele>128</ele>
        <time>2023-10-30T11:40:06Z</time>
      </trkpt>
      <trkpt lat="44.4868" lon="1.36909">
        <ele>128</ele>
        <time>2023-10-30T11:40:39Z</time>
      </trkpt>
      <trkpt lat="44.4867" lon="1.369">
        <ele>127</ele>
        <time>2023-10-30T11:40:54Z</time>
      </trkpt>
      <trkpt lat="44.48658" lon="1.36892">
        <ele>127</ele>
        <time>2023-10-30T11:41:12Z</time>
      </trkpt>
      <trkpt lat="44.4864" lon="1.36875">
        <ele>127</ele>
        <time>2023-10-30T11:41:41Z</time>
      </trkpt>
      <trkpt lat="44.486" lon="1.36851">
        <ele>128</ele>
        <time>2023-10-30T11:42:39Z</time>
      </trkpt>
      <trkpt lat="44.4857" lon="1.36837">
        <ele>128</ele>
        <time>2023-10-30T11:43:21Z</time>
      </trkpt>
      <trkpt lat="44.48548" lon="1.36825">
        <ele>126</ele>
        <time>2023-10-30T11:43:53Z</time>
      </trkpt>
      <trkpt lat="44.48521" lon="1.36813">
        <ele>124</ele>
        <time>2023-10-30T11:44:31Z</time>
      </trkpt>
      <trkpt lat="44.48492" lon="1.36804">
        <ele>123</ele>
        <time>2023-10-30T11:45:10Z</time>
      </trkpt>
      <trkpt lat="44.48468" lon="1.36796">
        <ele>123</ele>
        <time>2023-10-30T11:45:43Z</time>
      </trkpt>
      <trkpt lat="44.4843" lon="1.3678">
        <ele>122</ele>
        <time>2023-10-30T11:46:36Z</time>
      </trkpt>
      <trkpt lat="44.48402" lon="1.36769">
        <ele>122</ele>
        <time>2023-10-30T11:47:15Z</time>
      </trkpt>
      <trkpt lat="44.48377" lon="1.36759">
        <ele>122</ele>
        <time>2023-10-30T11:47:50Z</time>
      </trkpt>
      <trkpt lat="44.48353" lon="1.36747">
        <ele>123</ele>
        <time>2023-10-30T11:48:24Z</time>
      </trkpt>
      <trkpt lat="44.48327" lon="1.36738">
        <ele>123</ele>
        <time>2023-10-30T11:48:59Z</time>
      </trkpt>
      <trkpt lat="44.4829" lon="1.36719">
        <ele>122</ele>
        <time>2023-10-30T11:49:52Z</time>
      </trkpt>
      <trkpt lat="44.48258" lon="1.36703">
        <ele>122</ele>
        <time>2023-10-30T11:50:37Z</time>
      </trkpt>
      <trkpt lat="44.48243" lon="1.36695">
        <ele>122</ele>
        <time>2023-10-30T11:50:59Z</time>
      </trkpt>
      <trkpt lat="44.48218" lon="1.36675">
        <ele>121</ele>
        <time>2023-10-30T11:51:37Z</time>
      </trkpt>
      <trkpt lat="44.48197" lon="1.36655">
        <ele>121</ele>
        <time>2023-10-30T11:52:11Z</time>
      </trkpt>
      <trkpt lat="44.48177" lon="1.36628">
        <ele>120</ele>
        <time>2023-10-30T11:52:48Z</time>
      </trkpt>
      <trkpt lat="44.48153" lon="1.36589">
        <ele>119</ele>
        <time>2023-10-30T11:53:37Z</time>
      </trkpt>
      <trkpt lat="44.4813" lon="1.36546">
        <ele>117</ele>
        <time>2023-10-30T11:54:28Z</time>
      </trkpt>
      <trkpt lat="44.4812" lon="1.36522">
        <ele>115</ele>
        <time>2023-10-30T11:54:55Z</time>
      </trkpt>
      <trkpt lat="44.48106" lon="1.36491">
        <ele>113</ele>
        <time>2023-10-30T11:55:30Z</time>
      </trkpt>
      <trkpt lat="44.48096" lon="1.3647">
        <ele>112</ele>
        <time>2023-10-30T11:55:54Z</time>
      </trkpt>
      <trkpt lat="44.48083" lon="1.36426">
        <ele>109</ele>
        <time>2023-10-30T11:56:39Z</time>
      </trkpt>
      <trkpt lat="44.48064" lon="1.36379">
        <ele>107</ele>
        <time>2023-10-30T11:57:31Z</time>
      </trkpt>
      <trkpt lat="44.48049" lon="1.3633">
        <ele>106</ele>
        <time>2023-10-30T11:58:21Z</time>
      </trkpt>
      <trkpt lat="44.48043" lon="1.36312">
        <ele>107</ele>
        <time>2023-10-30T11:58:40Z</time>
      </trkpt>
      <trkpt lat="44.48038" lon="1.36301">
        <ele>107</ele>
        <time>2023-10-30T11:58:53Z</time>
      </trkpt>
      <trkpt lat="44.48029" lon="1.36306">
        <ele>107</ele>
        <time>2023-10-30T11:59:06Z</time>
      </trkpt>
      <trkpt lat="44.48019" lon="1.36315">
        <ele>108</ele>
        <time>2023-10-30T11:59:21Z</time>
      </trkpt>
      <trkpt lat="44.48011" lon="1.36322">
        <ele>108</ele>
        <time>2023-10-30T11:59:34Z</time>
      </trkpt>
      <trkpt lat="44.47995" lon="1.36328">
        <ele>108</ele>
        <time>2023-10-30T11:59:56Z</time>
      </trkpt>
      <trkpt lat="44.4798" lon="1.36333">
        <ele>108</ele>
        <time>2023-10-30T12:00:17Z</time>
      </trkpt>
      <trkpt lat="44.47958" lon="1.36339">
        <ele>108</ele>
        <time>2023-10-30T12:00:47Z</time>
      </trkpt>
      <trkpt lat="44.47946" lon="1.3634">
        <ele>108</ele>
        <time>2023-10-30T12:01:03Z</time>
      </trkpt>
      <trkpt lat="44.4793" lon="1.36346">
        <ele>108</ele>
        <time>2023-10-30T12:01:25Z</time>
      </trkpt>
      <trkpt lat="44.47913" lon="1.36353">
        <ele>108</ele>
        <time>2023-10-30T12:01:48Z</time>
      </trkpt>
      <trkpt lat="44.47895" lon="1.36356">
        <ele>108</ele>
        <time>2023-10-30T12:02:13Z</time>
      </trkpt>
      <trkpt lat="44.47876" lon="1.36353">
        <ele>108</ele>
        <time>2023-10-30T12:02:38Z</time>
      </trkpt>
      <trkpt lat="44.47863" lon="1.36351">
        <ele>108</ele>
        <time>2023-10-30T12:02:56Z</time>
      </trkpt>
      <trkpt lat="44.47849" lon="1.36342">
        <ele>107</ele>
        <time>2023-10-30T12:03:16Z</time>
      </trkpt>
      <trkpt lat="44.47842" lon="1.36341">
        <ele>107</ele>
        <time>2023-10-30T12:03:26Z</time>
      </trkpt>
      <trkpt lat="44.47825" lon="1.36337">
        <ele>107</ele>
        <time>2023-10-30T12:03:49Z</time>
      </trkpt>
      <trkpt lat="44.47807" lon="1.36328">
        <ele>107</ele>
        <time>2023-10-30T12:04:14Z</time>
      </trkpt>
      <trkpt lat="44.47796" lon="1.36322">
        <ele>107</ele>
        <time>2023-10-30T12:04:30Z</time>
      </trkpt>
      <trkpt lat="44.47769" lon="1.36302">
        <ele>107</ele>
        <time>2023-10-30T12:05:11Z</time>
      </trkpt>
      <trkpt lat="44.47744" lon="1.36281">
        <ele>107</ele>
        <time>2023-10-30T12:05:49Z</time>
      </trkpt>
      <trkpt lat="44.47731" lon="1.3627">
        <ele>106</ele>
        <time>2023-10-30T12:06:10Z</time>
      </trkpt>
      <trkpt lat="44.47715" lon="1.36251">
        <ele>106</ele>
        <time>2023-10-30T12:06:38Z</time>
      </trkpt>
      <trkpt lat="44.47696" lon="1.36235">
        <ele>106</ele>
        <time>2023-10-30T12:07:07Z</time>
      </trkpt>
      <trkpt lat="44.47679" lon="1.36204">
        <ele>106</ele>
        <time>2023-10-30T12:07:44Z</time>
      </trkpt>
      <trkpt lat="44.47657" lon="1.36188">
        <ele>105</ele>
        <time>2023-10-30T12:08:18Z</time>
      </trkpt>
      <trkpt lat="44.47641" lon="1.36157">
        <ele>105</ele>
        <time>2023-10-30T12:08:54Z</time>
      </trkpt>
      <trkpt lat="44.4762" lon="1.36136">
        <ele>105</ele>
        <time>2023-10-30T12:09:28Z</time>
      </trkpt>
      <trkpt lat="44.47607" lon="1.36112">
        <ele>105</ele>
        <time>2023-10-30T12:09:57Z</time>
      </trkpt>
      <trkpt lat="44.4759" lon="1.36089">
        <ele>106</ele>
        <time>2023-10-30T12:10:29Z</time>
      </trkpt>
      <trkpt lat="44.47576" lon="1.36068">
        <ele>106</ele>
        <time>2023-10-30T12:10:56Z</time>
      </trkpt>
      <trkpt lat="44.4756" lon="1.36049">
        <ele>107</ele>
        <time>2023-10-30T12:11:24Z</time>
      </trkpt>
      <trkpt lat="44.47548" lon="1.36037">
        <ele>107</ele>
        <time>2023-10-30T12:11:44Z</time>
      </trkpt>
      <trkpt lat="44.47539" lon="1.36023">
        <ele>108</ele>
        <time>2023-10-30T12:12:02Z</time>
      </trkpt>
      <trkpt lat="44.47526" lon="1.36012">
        <ele>108</ele>
        <time>2023-10-30T12:12:22Z</time>
      </trkpt>
      <trkpt lat="44.47509" lon="1.35993">
        <ele>109</ele>
        <time>2023-10-30T12:12:51Z</time>
      </trkpt>
      <trkpt lat="44.47494" lon="1.35987">
        <ele>110</ele>
        <time>2023-10-30T12:13:12Z</time>
      </trkpt>
      <trkpt lat="44.47476" lon="1.35981">
        <ele>111</ele>
        <time>2023-10-30T12:13:36Z</time>
      </trkpt>
      <trkpt lat="44.47457" lon="1.35977">
        <ele>112</ele>
        <time>2023-10-30T12:14:02Z</time>
      </trkpt>
      <trkpt lat="44.47439" lon="1.35977">
        <ele>112</ele>
        <time>2023-10-30T12:14:26Z</time>
      </trkpt>
      <trkpt lat="44.47419" lon="1.35976">
        <ele>112</ele>
        <time>2023-10-30T12:14:53Z</time>
      </trkpt>
      <trkpt lat="44.47388" lon="1.35978">
        <ele>113</ele>
        <time>2023-10-30T12:15:34Z</time>
      </trkpt>
      <trkpt lat="44.47367" lon="1.35978">
        <ele>114</ele>
        <time>2023-10-30T12:16:02Z</time>
      </trkpt>
      <trkpt lat="44.47333" lon="1.35984">
        <ele>114</ele>
        <time>2023-10-30T12:16:48Z</time>
      </trkpt>
      <trkpt lat="44.47314" lon="1.35987">
        <ele>114</ele>
        <time>2023-10-30T12:17:13Z</time>
      </trkpt>
      <trkpt lat="44.47294" lon="1.35988">
        <ele>115</ele>
        <time>2023-10-30T12:17:40Z</time>
      </trkpt>
      <trkpt lat="44.47281" lon="1.35998">
        <ele>114</ele>
        <time>2023-10-30T12:18:00Z</time>
      </trkpt>
      <trkpt lat="44.47255" lon="1.36014">
        <ele>114</ele>
        <time>2023-10-30T12:18:38Z</time>
      </trkpt>
      <trkpt lat="44.47236" lon="1.36026">
        <ele>113</ele>
        <time>2023-10-30T12:19:06Z</time>
      </trkpt>
      <trkpt lat="44.47219" lon="1.36039">
        <ele>112</ele>
        <time>2023-10-30T12:19:32Z</time>
      </trkpt>
      <trkpt lat="44.47203" lon="1.36054">
        <ele>111</ele>
        <time>2023-10-30T12:19:57Z</time>
      </trkpt>
      <trkpt lat="44.47186" lon="1.36073">
        <ele>110</ele>
        <time>2023-10-30T12:20:26Z</time>
      </trkpt>
      <trkpt lat="44.47168" lon="1.36086">
        <ele>110</ele>
        <time>2023-10-30T12:20:53Z</time>
      </trkpt>
      <trkpt lat="44.47148" lon="1.3609">
        <ele>110</ele>
        <time>2023-10-30T12:21:20Z</time>
      </trkpt>
      <trkpt lat="44.47134" lon="1.36102">
        <ele>110</ele>
        <time>2023-10-30T12:21:42Z</time>
      </trkpt>
      <trkpt lat="44.47125" lon="1.36109">
        <ele>110</ele>
        <time>2023-10-30T12:21:56Z</time>
      </trkpt>
      <trkpt lat="44.47104" lon="1.36126">
        <ele>110</ele>
        <time>2023-10-30T12:22:28Z</time>
      </trkpt>
      <trkpt lat="44.47093" lon="1.36136">
        <ele>111</ele>
        <time>2023-10-30T12:22:46Z</time>
      </trkpt>
      <trkpt lat="44.47074" lon="1.36148">
        <ele>111</ele>
        <time>2023-10-30T12:23:14Z</time>
      </trkpt>
      <trkpt lat="44.47049" lon="1.36166">
        <ele>111</ele>
        <time>2023-10-30T12:23:51Z</time>
      </trkpt>
      <trkpt lat="44.47031" lon="1.36178">
        <ele>111</ele>
        <time>2023-10-30T12:24:18Z</time>
      </trkpt>
      <trkpt lat="44.47014" lon="1.36192">
        <ele>111</ele>
        <time>2023-10-30T12:24:44Z</time>
      </trkpt>
      <trkpt lat="44.47002" lon="1.36202">
        <ele>111</ele>
        <time>2023-10-30T12:25:03Z</time>
      </trkpt>
      <trkpt lat="44.46983" lon="1.36224">
        <ele>113</ele>
        <time>2023-10-30T12:25:35Z</time>
      </trkpt>
    </trkseg>
  </trk>
</gpx>